sensor_id;sensor_type;location;lat;lon;timestamp;P1;durP1;ratioP1;P2;durP2;ratioP2
70312;SDS011;57723;51.698;5.344;2022-08-19T00:00:02;9.90;;;6.40;;
70312;SDS011;57723;51.698;5.344;2022-08-19T00:02:28;9.32;;;6.20;;
70312;SDS011;57723;51.698;5.344;2022-08-19T00:04:56;9.97;;;6.03;;
70312;SDS011;57723;51.698;5.344;2022-08-19T00:07:21;8.63;;;6.30;;
70312;SDS011;57723;51.698;5.344;2022-08-19T00:09:46;9.15;;;6.20;;
70312;SDS011;57723;51.698;5.344;2022-08-19T00:12:21;8.37;;;6.03;;
70312;SDS011;57723;51.698;5.344;2022-08-19T00:14:47;8.70;;;6.13;;
70312;SDS011;57723;51.698;5.344;2022-08-19T00:17:15;9.33;;;6.40;;
70312;SDS011;57723;51.698;5.344;2022-08-19T00:19:49;9.82;;;6.50;;
70312;SDS011;57723;51.698;5.344;2022-08-19T00:22:35;9.52;;;6.28;;
70312;SDS011;57723;51.698;5.344;2022-08-19T00:25:09;9.95;;;6.78;;
70312;SDS011;57723;51.698;5.344;2022-08-19T00:27:35;8.93;;;6.43;;
70312;SDS011;57723;51.698;5.344;2022-08-19T00:30:00;10.37;;;6.47;;
70312;SDS011;57723;51.698;5.344;2022-08-19T00:32:28;9.15;;;6.25;;
70312;SDS011;57723;51.698;5.344;2022-08-19T00:34:53;8.98;;;5.90;;
70312;SDS011;57723;51.698;5.344;2022-08-19T00:37:19;8.40;;;6.00;;
70312;SDS011;57723;51.698;5.344;2022-08-19T00:39:45;8.88;;;5.78;;
70312;SDS011;57723;51.698;5.344;2022-08-19T00:42:12;7.47;;;5.67;;
70312;SDS011;57723;51.698;5.344;2022-08-19T00:44:40;9.05;;;6.13;;
70312;SDS011;57723;51.698;5.344;2022-08-19T00:47:05;9.27;;;6.07;;
70312;SDS011;57723;51.698;5.344;2022-08-19T00:49:34;9.43;;;5.40;;
70312;SDS011;57723;51.698;5.344;2022-08-19T00:52:02;9.57;;;5.82;;
70312;SDS011;57723;51.698;5.344;2022-08-19T00:54:29;9.88;;;5.95;;
70312;SDS011;57723;51.698;5.344;2022-08-19T00:56:56;8.60;;;6.07;;
70312;SDS011;57723;51.698;5.344;2022-08-19T00:59:21;11.00;;;6.30;;
70312;SDS011;57723;51.698;5.344;2022-08-19T01:01:50;7.50;;;5.63;;
70312;SDS011;57723;51.698;5.344;2022-08-19T01:04:15;8.88;;;6.10;;
70312;SDS011;57723;51.698;5.344;2022-08-19T01:06:40;11.13;;;6.90;;
70312;SDS011;57723;51.698;5.344;2022-08-19T01:09:06;9.00;;;6.20;;
70312;SDS011;57723;51.698;5.344;2022-08-19T01:11:39;12.23;;;6.87;;
70312;SDS011;57723;51.698;5.344;2022-08-19T01:14:06;10.73;;;6.70;;
70312;SDS011;57723;51.698;5.344;2022-08-19T01:16:31;11.70;;;7.10;;
70312;SDS011;57723;51.698;5.344;2022-08-19T01:18:57;8.90;;;6.60;;
70312;SDS011;57723;51.698;5.344;2022-08-19T01:21:27;10.53;;;6.57;;
70312;SDS011;57723;51.698;5.344;2022-08-19T01:23:56;11.20;;;7.18;;
70312;SDS011;57723;51.698;5.344;2022-08-19T01:26:22;12.37;;;7.23;;
70312;SDS011;57723;51.698;5.344;2022-08-19T01:28:48;9.30;;;6.90;;
70312;SDS011;57723;51.698;5.344;2022-08-19T01:31:23;11.00;;;7.82;;
70312;SDS011;57723;51.698;5.344;2022-08-19T01:33:49;13.50;;;8.00;;
70312;SDS011;57723;51.698;5.344;2022-08-19T01:36:19;12.77;;;8.80;;
70312;SDS011;57723;51.698;5.344;2022-08-19T01:38:47;15.50;;;9.68;;
70312;SDS011;57723;51.698;5.344;2022-08-19T01:41:13;14.95;;;9.10;;
70312;SDS011;57723;51.698;5.344;2022-08-19T01:43:38;14.33;;;8.57;;
70312;SDS011;57723;51.698;5.344;2022-08-19T01:46:07;13.20;;;8.70;;
70312;SDS011;57723;51.698;5.344;2022-08-19T01:48:33;14.40;;;8.73;;
70312;SDS011;57723;51.698;5.344;2022-08-19T01:51:01;14.98;;;8.57;;
70312;SDS011;57723;51.698;5.344;2022-08-19T01:53:27;13.30;;;8.20;;
70312;SDS011;57723;51.698;5.344;2022-08-19T01:55:52;12.15;;;8.07;;
70312;SDS011;57723;51.698;5.344;2022-08-19T01:58:19;16.77;;;8.80;;
70312;SDS011;57723;51.698;5.344;2022-08-19T02:00:46;13.48;;;9.18;;
70312;SDS011;57723;51.698;5.344;2022-08-19T02:03:12;12.68;;;8.45;;
70312;SDS011;57723;51.698;5.344;2022-08-19T02:05:37;12.87;;;8.40;;
70312;SDS011;57723;51.698;5.344;2022-08-19T02:08:06;11.70;;;8.27;;
70312;SDS011;57723;51.698;5.344;2022-08-19T02:10:37;11.40;;;7.85;;
70312;SDS011;57723;51.698;5.344;2022-08-19T02:13:05;12.32;;;8.00;;
70312;SDS011;57723;51.698;5.344;2022-08-19T02:15:30;13.02;;;8.10;;
70312;SDS011;57723;51.698;5.344;2022-08-19T02:17:55;12.60;;;8.33;;
70312;SDS011;57723;51.698;5.344;2022-08-19T02:20:20;13.27;;;8.53;;
70312;SDS011;57723;51.698;5.344;2022-08-19T02:22:47;13.27;;;8.83;;
70312;SDS011;57723;51.698;5.344;2022-08-19T02:25:12;12.50;;;8.90;;
70312;SDS011;57723;51.698;5.344;2022-08-19T02:27:38;16.00;;;10.18;;
70312;SDS011;57723;51.698;5.344;2022-08-19T02:30:05;17.35;;;9.77;;
70312;SDS011;57723;51.698;5.344;2022-08-19T02:32:31;17.88;;;10.73;;
70312;SDS011;57723;51.698;5.344;2022-08-19T02:34:57;16.17;;;9.87;;
70312;SDS011;57723;51.698;5.344;2022-08-19T02:37:22;15.47;;;9.70;;
70312;SDS011;57723;51.698;5.344;2022-08-19T02:40:06;14.60;;;10.00;;
70312;SDS011;57723;51.698;5.344;2022-08-19T02:42:31;18.08;;;10.43;;
70312;SDS011;57723;51.698;5.344;2022-08-19T02:44:57;16.97;;;10.30;;
70312;SDS011;57723;51.698;5.344;2022-08-19T02:47:22;14.67;;;9.57;;
70312;SDS011;57723;51.698;5.344;2022-08-19T02:49:50;14.37;;;9.80;;
70312;SDS011;57723;51.698;5.344;2022-08-19T02:52:35;17.00;;;10.50;;
70312;SDS011;57723;51.698;5.344;2022-08-19T02:55:01;15.00;;;9.47;;
70312;SDS011;57723;51.698;5.344;2022-08-19T02:57:27;20.10;;;10.30;;
70312;SDS011;57723;51.698;5.344;2022-08-19T02:59:52;15.33;;;9.60;;
70312;SDS011;57723;51.698;5.344;2022-08-19T03:02:17;13.87;;;8.60;;
70312;SDS011;57723;51.698;5.344;2022-08-19T03:04:43;13.53;;;8.17;;
70312;SDS011;57723;51.698;5.344;2022-08-19T03:07:08;14.90;;;8.23;;
70312;SDS011;57723;51.698;5.344;2022-08-19T03:09:35;14.00;;;8.27;;
70312;SDS011;57723;51.698;5.344;2022-08-19T03:12:02;14.90;;;8.77;;
70312;SDS011;57723;51.698;5.344;2022-08-19T03:14:30;13.60;;;9.13;;
70312;SDS011;57723;51.698;5.344;2022-08-19T03:16:55;11.50;;;8.15;;
70312;SDS011;57723;51.698;5.344;2022-08-19T03:19:20;13.60;;;7.87;;
70312;SDS011;57723;51.698;5.344;2022-08-19T03:21:49;13.05;;;7.55;;
70312;SDS011;57723;51.698;5.344;2022-08-19T03:24:15;12.93;;;7.03;;
70312;SDS011;57723;51.698;5.344;2022-08-19T03:26:42;10.13;;;7.05;;
70312;SDS011;57723;51.698;5.344;2022-08-19T03:29:10;11.50;;;6.95;;
70312;SDS011;57723;51.698;5.344;2022-08-19T03:31:36;10.85;;;6.88;;
70312;SDS011;57723;51.698;5.344;2022-08-19T03:34:04;10.23;;;6.53;;
70312;SDS011;57723;51.698;5.344;2022-08-19T03:36:46;11.38;;;7.20;;
70312;SDS011;57723;51.698;5.344;2022-08-19T03:39:14;10.05;;;6.95;;
70312;SDS011;57723;51.698;5.344;2022-08-19T03:41:40;10.77;;;6.73;;
70312;SDS011;57723;51.698;5.344;2022-08-19T03:44:09;10.77;;;6.67;;
70312;SDS011;57723;51.698;5.344;2022-08-19T03:46:35;10.57;;;7.10;;
70312;SDS011;57723;51.698;5.344;2022-08-19T03:49:03;12.50;;;7.50;;
70312;SDS011;57723;51.698;5.344;2022-08-19T03:51:33;10.77;;;7.07;;
70312;SDS011;57723;51.698;5.344;2022-08-19T03:54:00;14.13;;;7.53;;
70312;SDS011;57723;51.698;5.344;2022-08-19T03:56:26;11.48;;;7.22;;
70312;SDS011;57723;51.698;5.344;2022-08-19T03:58:52;12.55;;;7.28;;
70312;SDS011;57723;51.698;5.344;2022-08-19T04:01:19;11.00;;;6.90;;
70312;SDS011;57723;51.698;5.344;2022-08-19T04:03:45;11.95;;;7.72;;
70312;SDS011;57723;51.698;5.344;2022-08-19T04:06:15;13.80;;;8.50;;
70312;SDS011;57723;51.698;5.344;2022-08-19T04:08:41;12.98;;;7.57;;
70312;SDS011;57723;51.698;5.344;2022-08-19T04:11:07;12.18;;;8.02;;
70312;SDS011;57723;51.698;5.344;2022-08-19T04:13:33;17.00;;;9.07;;
70312;SDS011;57723;51.698;5.344;2022-08-19T04:15:59;15.02;;;9.10;;
70312;SDS011;57723;51.698;5.344;2022-08-19T04:18:24;17.57;;;9.73;;
70312;SDS011;57723;51.698;5.344;2022-08-19T04:20:50;13.53;;;8.40;;
70312;SDS011;57723;51.698;5.344;2022-08-19T04:23:15;14.57;;;9.07;;
70312;SDS011;57723;51.698;5.344;2022-08-19T04:25:42;16.23;;;9.27;;
70312;SDS011;57723;51.698;5.344;2022-08-19T04:28:08;17.73;;;9.73;;
70312;SDS011;57723;51.698;5.344;2022-08-19T04:30:53;17.20;;;10.38;;
70312;SDS011;57723;51.698;5.344;2022-08-19T04:33:21;17.17;;;10.75;;
70312;SDS011;57723;51.698;5.344;2022-08-19T04:35:48;17.55;;;10.95;;
70312;SDS011;57723;51.698;5.344;2022-08-19T04:38:14;17.60;;;10.38;;
70312;SDS011;57723;51.698;5.344;2022-08-19T04:40:40;21.10;;;11.10;;
70312;SDS011;57723;51.698;5.344;2022-08-19T04:43:24;21.83;;;12.68;;
70312;SDS011;57723;51.698;5.344;2022-08-19T04:45:49;22.73;;;11.93;;
70312;SDS011;57723;51.698;5.344;2022-08-19T04:48:16;24.13;;;12.68;;
70312;SDS011;57723;51.698;5.344;2022-08-19T04:50:42;23.27;;;13.35;;
70312;SDS011;57723;51.698;5.344;2022-08-19T04:53:08;23.73;;;12.70;;
70312;SDS011;57723;51.698;5.344;2022-08-19T04:55:34;22.02;;;13.15;;
70312;SDS011;57723;51.698;5.344;2022-08-19T04:58:00;27.33;;;13.95;;
70312;SDS011;57723;51.698;5.344;2022-08-19T05:00:27;28.43;;;14.47;;
70312;SDS011;57723;51.698;5.344;2022-08-19T05:02:52;22.73;;;14.27;;
70312;SDS011;57723;51.698;5.344;2022-08-19T05:05:17;29.40;;;14.37;;
70312;SDS011;57723;51.698;5.344;2022-08-19T05:07:42;26.60;;;15.53;;
70312;SDS011;57723;51.698;5.344;2022-08-19T05:10:10;28.10;;;15.40;;
70312;SDS011;57723;51.698;5.344;2022-08-19T05:12:36;26.90;;;15.02;;
70312;SDS011;57723;51.698;5.344;2022-08-19T05:15:02;26.13;;;15.10;;
70312;SDS011;57723;51.698;5.344;2022-08-19T05:17:28;29.92;;;15.45;;
70312;SDS011;57723;51.698;5.344;2022-08-19T05:19:53;25.93;;;14.97;;
70312;SDS011;57723;51.698;5.344;2022-08-19T05:22:37;29.42;;;15.57;;
70312;SDS011;57723;51.698;5.344;2022-08-19T05:25:11;25.27;;;15.93;;
70312;SDS011;57723;51.698;5.344;2022-08-19T05:27:37;28.07;;;14.90;;
70312;SDS011;57723;51.698;5.344;2022-08-19T05:30:02;28.50;;;14.43;;
70312;SDS011;57723;51.698;5.344;2022-08-19T05:32:28;25.20;;;15.03;;
70312;SDS011;57723;51.698;5.344;2022-08-19T05:34:55;32.80;;;16.45;;
70312;SDS011;57723;51.698;5.344;2022-08-19T05:37:40;25.92;;;15.18;;
70312;SDS011;57723;51.698;5.344;2022-08-19T05:40:48;35.93;;;18.00;;
70312;SDS011;57723;51.698;5.344;2022-08-19T05:42:54;36.67;;;18.07;;
70312;SDS011;57723;51.698;5.344;2022-08-19T05:45:20;33.87;;;17.50;;
70312;SDS011;57723;51.698;5.344;2022-08-19T05:47:46;34.25;;;18.02;;
70312;SDS011;57723;51.698;5.344;2022-08-19T05:50:11;33.27;;;17.90;;
70312;SDS011;57723;51.698;5.344;2022-08-19T05:52:43;35.73;;;18.53;;
70312;SDS011;57723;51.698;5.344;2022-08-19T05:55:09;33.95;;;17.38;;
70312;SDS011;57723;51.698;5.344;2022-08-19T05:57:35;33.50;;;17.67;;
70312;SDS011;57723;51.698;5.344;2022-08-19T06:00:04;32.03;;;16.87;;
70312;SDS011;57723;51.698;5.344;2022-08-19T06:02:36;30.13;;;16.85;;
70312;SDS011;57723;51.698;5.344;2022-08-19T06:05:04;32.63;;;16.30;;
70312;SDS011;57723;51.698;5.344;2022-08-19T06:07:34;32.03;;;16.05;;
70312;SDS011;57723;51.698;5.344;2022-08-19T06:10:18;33.88;;;16.88;;
70312;SDS011;57723;51.698;5.344;2022-08-19T06:12:51;31.73;;;16.53;;
70312;SDS011;57723;51.698;5.344;2022-08-19T06:15:21;31.73;;;16.42;;
70312;SDS011;57723;51.698;5.344;2022-08-19T06:17:47;28.65;;;16.45;;
70312;SDS011;57723;51.698;5.344;2022-08-19T06:20:13;29.23;;;16.63;;
70312;SDS011;57723;51.698;5.344;2022-08-19T06:22:40;30.45;;;16.90;;
70312;SDS011;57723;51.698;5.344;2022-08-19T06:25:14;28.65;;;15.38;;
70312;SDS011;57723;51.698;5.344;2022-08-19T06:28:11;30.67;;;15.83;;
70312;SDS011;57723;51.698;5.344;2022-08-19T06:30:38;27.92;;;15.27;;
70312;SDS011;57723;51.698;5.344;2022-08-19T06:33:14;32.38;;;15.10;;
70312;SDS011;57723;51.698;5.344;2022-08-19T06:35:39;35.03;;;15.55;;
70312;SDS011;57723;51.698;5.344;2022-08-19T06:38:06;27.70;;;13.70;;
70312;SDS011;57723;51.698;5.344;2022-08-19T06:40:34;27.58;;;13.63;;
70312;SDS011;57723;51.698;5.344;2022-08-19T06:43:01;30.92;;;15.13;;
70312;SDS011;57723;51.698;5.344;2022-08-19T06:45:27;31.83;;;15.23;;
70312;SDS011;57723;51.698;5.344;2022-08-19T06:47:52;32.80;;;14.70;;
70312;SDS011;57723;51.698;5.344;2022-08-19T06:50:21;29.55;;;14.98;;
70312;SDS011;57723;51.698;5.344;2022-08-19T06:52:46;32.90;;;14.73;;
70312;SDS011;57723;51.698;5.344;2022-08-19T06:55:12;27.80;;;13.65;;
70312;SDS011;57723;51.698;5.344;2022-08-19T06:57:37;31.53;;;14.80;;
70312;SDS011;57723;51.698;5.344;2022-08-19T07:00:03;27.73;;;13.73;;
70312;SDS011;57723;51.698;5.344;2022-08-19T07:02:29;34.03;;;15.15;;
70312;SDS011;57723;51.698;5.344;2022-08-19T07:04:54;31.67;;;14.77;;
70312;SDS011;57723;51.698;5.344;2022-08-19T07:07:22;29.20;;;14.20;;
70312;SDS011;57723;51.698;5.344;2022-08-19T07:09:48;25.87;;;13.50;;
70312;SDS011;57723;51.698;5.344;2022-08-19T07:12:14;29.00;;;13.95;;
70312;SDS011;57723;51.698;5.344;2022-08-19T07:14:42;29.23;;;14.30;;
70312;SDS011;57723;51.698;5.344;2022-08-19T07:17:09;29.88;;;14.00;;
70312;SDS011;57723;51.698;5.344;2022-08-19T07:19:35;28.33;;;14.38;;
70312;SDS011;57723;51.698;5.344;2022-08-19T07:22:01;28.63;;;12.83;;
70312;SDS011;57723;51.698;5.344;2022-08-19T07:24:27;29.48;;;13.93;;
70312;SDS011;57723;51.698;5.344;2022-08-19T07:26:53;24.98;;;13.48;;
70312;SDS011;57723;51.698;5.344;2022-08-19T07:29:20;29.60;;;13.50;;
70312;SDS011;57723;51.698;5.344;2022-08-19T07:31:48;29.50;;;13.15;;
70312;SDS011;57723;51.698;5.344;2022-08-19T07:34:13;29.35;;;13.05;;
70312;SDS011;57723;51.698;5.344;2022-08-19T07:36:40;26.27;;;12.43;;
70312;SDS011;57723;51.698;5.344;2022-08-19T07:39:10;28.73;;;12.63;;
70312;SDS011;57723;51.698;5.344;2022-08-19T07:41:47;22.63;;;11.98;;
70312;SDS011;57723;51.698;5.344;2022-08-19T07:44:16;26.40;;;12.18;;
70312;SDS011;57723;51.698;5.344;2022-08-19T07:46:45;25.75;;;11.68;;
70312;SDS011;57723;51.698;5.344;2022-08-19T07:49:13;26.37;;;11.97;;
70312;SDS011;57723;51.698;5.344;2022-08-19T07:51:53;26.60;;;11.52;;
70312;SDS011;57723;51.698;5.344;2022-08-19T07:54:21;27.13;;;12.88;;
70312;SDS011;57723;51.698;5.344;2022-08-19T07:56:56;26.55;;;12.18;;
70312;SDS011;57723;51.698;5.344;2022-08-19T07:59:24;28.33;;;12.23;;
70312;SDS011;57723;51.698;5.344;2022-08-19T08:01:49;26.27;;;12.47;;
70312;SDS011;57723;51.698;5.344;2022-08-19T08:04:15;28.17;;;13.20;;
70312;SDS011;57723;51.698;5.344;2022-08-19T08:06:59;28.63;;;12.63;;
70312;SDS011;57723;51.698;5.344;2022-08-19T08:09:43;27.60;;;12.88;;
70312;SDS011;57723;51.698;5.344;2022-08-19T08:12:10;26.98;;;11.82;;
70312;SDS011;57723;51.698;5.344;2022-08-19T08:14:38;31.00;;;12.00;;
70312;SDS011;57723;51.698;5.344;2022-08-19T08:17:04;23.20;;;12.30;;
70312;SDS011;57723;51.698;5.344;2022-08-19T08:19:29;24.95;;;12.77;;
70312;SDS011;57723;51.698;5.344;2022-08-19T08:21:56;25.55;;;12.10;;
70312;SDS011;57723;51.698;5.344;2022-08-19T08:24:24;22.83;;;12.03;;
70312;SDS011;57723;51.698;5.344;2022-08-19T08:26:49;26.42;;;12.68;;
70312;SDS011;57723;51.698;5.344;2022-08-19T08:29:14;29.07;;;13.23;;
70312;SDS011;57723;51.698;5.344;2022-08-19T08:31:41;25.08;;;13.25;;
70312;SDS011;57723;51.698;5.344;2022-08-19T08:34:07;26.08;;;11.95;;
70312;SDS011;57723;51.698;5.344;2022-08-19T08:36:32;24.70;;;12.67;;
70312;SDS011;57723;51.698;5.344;2022-08-19T08:39:00;23.85;;;12.75;;
70312;SDS011;57723;51.698;5.344;2022-08-19T08:44:23;23.27;;;11.15;;
70312;SDS011;57723;51.698;5.344;2022-08-19T08:46:53;26.73;;;11.43;;
70312;SDS011;57723;51.698;5.344;2022-08-19T08:49:29;21.98;;;10.52;;
70312;SDS011;57723;51.698;5.344;2022-08-19T08:54:41;19.48;;;10.23;;
70312;SDS011;57723;51.698;5.344;2022-08-19T08:57:10;19.08;;;9.75;;
70312;SDS011;57723;51.698;5.344;2022-08-19T08:59:39;22.60;;;11.20;;
70312;SDS011;57723;51.698;5.344;2022-08-19T09:02:08;18.88;;;10.63;;
70312;SDS011;57723;51.698;5.344;2022-08-19T09:04:36;21.17;;;10.55;;
70312;SDS011;57723;51.698;5.344;2022-08-19T09:09:47;22.55;;;10.40;;
70312;SDS011;57723;51.698;5.344;2022-08-19T09:14:48;19.08;;;10.02;;
70312;SDS011;57723;51.698;5.344;2022-08-19T09:17:15;19.40;;;10.27;;
70312;SDS011;57723;51.698;5.344;2022-08-19T09:19:48;20.47;;;9.80;;
70312;SDS011;57723;51.698;5.344;2022-08-19T09:22:13;19.60;;;10.25;;
70312;SDS011;57723;51.698;5.344;2022-08-19T09:24:38;18.60;;;10.07;;
70312;SDS011;57723;51.698;5.344;2022-08-19T09:27:04;19.13;;;9.93;;
70312;SDS011;57723;51.698;5.344;2022-08-19T09:29:29;19.33;;;9.70;;
70312;SDS011;57723;51.698;5.344;2022-08-19T09:31:55;16.77;;;9.40;;
70312;SDS011;57723;51.698;5.344;2022-08-19T09:34:20;19.23;;;9.47;;
70312;SDS011;57723;51.698;5.344;2022-08-19T09:36:46;20.33;;;10.27;;
70312;SDS011;57723;51.698;5.344;2022-08-19T09:39:11;21.07;;;10.90;;
70312;SDS011;57723;51.698;5.344;2022-08-19T09:41:37;21.13;;;10.90;;
70312;SDS011;57723;51.698;5.344;2022-08-19T09:44:02;18.93;;;11.30;;
70312;SDS011;57723;51.698;5.344;2022-08-19T09:46:28;20.40;;;11.23;;
70312;SDS011;57723;51.698;5.344;2022-08-19T09:48:53;21.95;;;11.13;;
70312;SDS011;57723;51.698;5.344;2022-08-19T09:51:22;19.80;;;10.57;;
70312;SDS011;57723;51.698;5.344;2022-08-19T09:53:49;20.38;;;10.35;;
70312;SDS011;57723;51.698;5.344;2022-08-19T09:56:19;18.58;;;10.13;;
70312;SDS011;57723;51.698;5.344;2022-08-19T09:58:45;17.40;;;10.00;;
70312;SDS011;57723;51.698;5.344;2022-08-19T10:01:14;18.00;;;9.60;;
70312;SDS011;57723;51.698;5.344;2022-08-19T10:03:40;18.13;;;9.73;;
70312;SDS011;57723;51.698;5.344;2022-08-19T10:06:05;21.23;;;9.73;;
70312;SDS011;57723;51.698;5.344;2022-08-19T10:08:33;18.73;;;10.40;;
70312;SDS011;57723;51.698;5.344;2022-08-19T10:10:58;17.58;;;9.50;;
70312;SDS011;57723;51.698;5.344;2022-08-19T10:13:24;20.83;;;11.93;;
70312;SDS011;57723;51.698;5.344;2022-08-19T10:15:52;21.67;;;10.98;;
70312;SDS011;57723;51.698;5.344;2022-08-19T10:18:19;19.95;;;10.73;;
70312;SDS011;57723;51.698;5.344;2022-08-19T10:20:45;24.87;;;13.20;;
70312;SDS011;57723;51.698;5.344;2022-08-19T10:23:11;23.42;;;13.30;;
70312;SDS011;57723;51.698;5.344;2022-08-19T10:25:36;25.73;;;14.15;;
70312;SDS011;57723;51.698;5.344;2022-08-19T10:28:02;28.90;;;13.47;;
70312;SDS011;57723;51.698;5.344;2022-08-19T10:30:27;26.80;;;12.93;;
70312;SDS011;57723;51.698;5.344;2022-08-19T10:33:10;21.30;;;12.75;;
70312;SDS011;57723;51.698;5.344;2022-08-19T10:35:47;24.35;;;12.48;;
70312;SDS011;57723;51.698;5.344;2022-08-19T10:38:13;21.95;;;13.00;;
70312;SDS011;57723;51.698;5.344;2022-08-19T10:40:39;27.83;;;13.67;;
70312;SDS011;57723;51.698;5.344;2022-08-19T10:43:04;24.30;;;13.80;;
70312;SDS011;57723;51.698;5.344;2022-08-19T10:45:29;28.50;;;13.30;;
70312;SDS011;57723;51.698;5.344;2022-08-19T10:47:54;25.17;;;13.47;;
70312;SDS011;57723;51.698;5.344;2022-08-19T10:50:19;21.60;;;13.20;;
70312;SDS011;57723;51.698;5.344;2022-08-19T10:53:06;21.55;;;12.82;;
70312;SDS011;57723;51.698;5.344;2022-08-19T10:55:33;23.47;;;12.53;;
70312;SDS011;57723;51.698;5.344;2022-08-19T10:58:18;23.85;;;13.20;;
70312;SDS011;57723;51.698;5.344;2022-08-19T11:00:54;26.65;;;13.48;;
70312;SDS011;57723;51.698;5.344;2022-08-19T11:03:20;23.95;;;13.70;;
70312;SDS011;57723;51.698;5.344;2022-08-19T11:05:45;36.67;;;14.77;;
70312;SDS011;57723;51.698;5.344;2022-08-19T11:08:12;24.60;;;14.27;;
70312;SDS011;57723;51.698;5.344;2022-08-19T11:10:41;27.80;;;13.47;;
70312;SDS011;57723;51.698;5.344;2022-08-19T11:13:07;21.17;;;11.85;;
70312;SDS011;57723;51.698;5.344;2022-08-19T11:15:32;27.37;;;13.33;;
70312;SDS011;57723;51.698;5.344;2022-08-19T11:17:58;26.93;;;15.57;;
70312;SDS011;57723;51.698;5.344;2022-08-19T11:20:23;27.27;;;14.53;;
70312;SDS011;57723;51.698;5.344;2022-08-19T11:22:48;28.77;;;15.20;;
70312;SDS011;57723;51.698;5.344;2022-08-19T11:25:25;28.25;;;15.85;;
70312;SDS011;57723;51.698;5.344;2022-08-19T11:27:50;30.55;;;15.63;;
70312;SDS011;57723;51.698;5.344;2022-08-19T11:30:16;23.30;;;14.38;;
70312;SDS011;57723;51.698;5.344;2022-08-19T11:32:48;24.53;;;14.90;;
70312;SDS011;57723;51.698;5.344;2022-08-19T11:35:15;29.17;;;15.07;;
70312;SDS011;57723;51.698;5.344;2022-08-19T11:37:49;25.52;;;14.98;;
70312;SDS011;57723;51.698;5.344;2022-08-19T11:40:18;25.85;;;14.18;;
70312;SDS011;57723;51.698;5.344;2022-08-19T11:42:43;22.13;;;13.83;;
70312;SDS011;57723;51.698;5.344;2022-08-19T11:45:21;22.23;;;12.20;;
70312;SDS011;57723;51.698;5.344;2022-08-19T11:47:46;20.33;;;12.17;;
70312;SDS011;57723;51.698;5.344;2022-08-19T11:50:12;23.48;;;12.57;;
70312;SDS011;57723;51.698;5.344;2022-08-19T11:52:40;20.52;;;11.82;;
70312;SDS011;57723;51.698;5.344;2022-08-19T11:55:12;19.13;;;11.10;;
70312;SDS011;57723;51.698;5.344;2022-08-19T11:57:39;22.88;;;11.70;;
70312;SDS011;57723;51.698;5.344;2022-08-19T12:00:06;18.07;;;10.87;;
70312;SDS011;57723;51.698;5.344;2022-08-19T12:02:32;20.65;;;12.23;;
70312;SDS011;57723;51.698;5.344;2022-08-19T12:04:59;17.77;;;10.98;;
70312;SDS011;57723;51.698;5.344;2022-08-19T12:07:28;19.30;;;11.95;;
70312;SDS011;57723;51.698;5.344;2022-08-19T12:09:55;20.20;;;11.35;;
70312;SDS011;57723;51.698;5.344;2022-08-19T12:12:21;20.80;;;11.50;;
70312;SDS011;57723;51.698;5.344;2022-08-19T12:14:53;22.50;;;10.70;;
70312;SDS011;57723;51.698;5.344;2022-08-19T12:17:27;16.67;;;9.82;;
70312;SDS011;57723;51.698;5.344;2022-08-19T12:19:53;21.40;;;10.82;;
70312;SDS011;57723;51.698;5.344;2022-08-19T12:22:24;18.57;;;10.90;;
70312;SDS011;57723;51.698;5.344;2022-08-19T12:24:50;18.97;;;10.63;;
70312;SDS011;57723;51.698;5.344;2022-08-19T12:27:17;16.50;;;10.45;;
70312;SDS011;57723;51.698;5.344;2022-08-19T12:29:43;18.58;;;10.75;;
70312;SDS011;57723;51.698;5.344;2022-08-19T12:32:11;20.80;;;11.40;;
70312;SDS011;57723;51.698;5.344;2022-08-19T12:34:36;18.02;;;10.85;;
70312;SDS011;57723;51.698;5.344;2022-08-19T12:37:02;16.37;;;9.93;;
70312;SDS011;57723;51.698;5.344;2022-08-19T12:39:35;15.52;;;9.73;;
70312;SDS011;57723;51.698;5.344;2022-08-19T12:42:07;16.00;;;9.38;;
70312;SDS011;57723;51.698;5.344;2022-08-19T12:44:33;16.20;;;9.13;;
70312;SDS011;57723;51.698;5.344;2022-08-19T12:46:59;15.53;;;8.73;;
70312;SDS011;57723;51.698;5.344;2022-08-19T12:49:29;13.52;;;8.95;;
70312;SDS011;57723;51.698;5.344;2022-08-19T12:51:56;17.45;;;8.57;;
70312;SDS011;57723;51.698;5.344;2022-08-19T12:54:27;14.82;;;8.70;;
70312;SDS011;57723;51.698;5.344;2022-08-19T12:56:57;12.83;;;7.77;;
70312;SDS011;57723;51.698;5.344;2022-08-19T12:59:22;12.35;;;7.60;;
70312;SDS011;57723;51.698;5.344;2022-08-19T13:01:47;11.80;;;7.70;;
70312;SDS011;57723;51.698;5.344;2022-08-19T13:04:16;13.30;;;7.40;;
70312;SDS011;57723;51.698;5.344;2022-08-19T13:06:42;12.18;;;6.93;;
70312;SDS011;57723;51.698;5.344;2022-08-19T13:09:07;11.90;;;6.90;;
70312;SDS011;57723;51.698;5.344;2022-08-19T13:11:43;11.63;;;7.33;;
70312;SDS011;57723;51.698;5.344;2022-08-19T13:14:08;15.80;;;9.07;;
70312;SDS011;57723;51.698;5.344;2022-08-19T13:16:33;15.52;;;8.95;;
70312;SDS011;57723;51.698;5.344;2022-08-19T13:18:59;16.83;;;9.10;;
70312;SDS011;57723;51.698;5.344;2022-08-19T13:21:31;16.13;;;8.60;;
70312;SDS011;57723;51.698;5.344;2022-08-19T13:23:59;19.67;;;8.77;;
70312;SDS011;57723;51.698;5.344;2022-08-19T13:26:24;23.93;;;11.33;;
70312;SDS011;57723;51.698;5.344;2022-08-19T13:28:50;25.05;;;13.65;;
70312;SDS011;57723;51.698;5.344;2022-08-19T13:31:34;27.97;;;15.63;;
70312;SDS011;57723;51.698;5.344;2022-08-19T13:34:19;25.77;;;13.98;;
70312;SDS011;57723;51.698;5.344;2022-08-19T13:36:53;23.00;;;12.90;;
70312;SDS011;57723;51.698;5.344;2022-08-19T13:39:18;25.60;;;12.67;;
70312;SDS011;57723;51.698;5.344;2022-08-19T13:41:44;23.17;;;13.17;;
70312;SDS011;57723;51.698;5.344;2022-08-19T13:44:12;22.35;;;12.68;;
70312;SDS011;57723;51.698;5.344;2022-08-19T13:46:38;20.93;;;11.77;;
70312;SDS011;57723;51.698;5.344;2022-08-19T13:49:03;20.45;;;11.80;;
70312;SDS011;57723;51.698;5.344;2022-08-19T13:51:29;22.07;;;11.90;;
70312;SDS011;57723;51.698;5.344;2022-08-19T13:53:54;23.97;;;12.50;;
70312;SDS011;57723;51.698;5.344;2022-08-19T13:56:20;22.17;;;12.23;;
70312;SDS011;57723;51.698;5.344;2022-08-19T13:58:45;17.63;;;10.90;;
70312;SDS011;57723;51.698;5.344;2022-08-19T14:01:11;20.27;;;11.53;;
70312;SDS011;57723;51.698;5.344;2022-08-19T14:03:36;18.73;;;11.37;;
70312;SDS011;57723;51.698;5.344;2022-08-19T14:06:02;18.08;;;11.20;;
70312;SDS011;57723;51.698;5.344;2022-08-19T14:08:27;17.67;;;10.70;;
70312;SDS011;57723;51.698;5.344;2022-08-19T14:10:54;18.35;;;11.10;;
70312;SDS011;57723;51.698;5.344;2022-08-19T14:13:20;20.07;;;10.33;;
70312;SDS011;57723;51.698;5.344;2022-08-19T14:15:46;14.83;;;10.07;;
70312;SDS011;57723;51.698;5.344;2022-08-19T14:18:13;18.13;;;10.60;;
70312;SDS011;57723;51.698;5.344;2022-08-19T14:20:39;16.77;;;10.05;;
70312;SDS011;57723;51.698;5.344;2022-08-19T14:23:04;20.07;;;10.50;;
70312;SDS011;57723;51.698;5.344;2022-08-19T14:25:30;14.73;;;10.00;;
70312;SDS011;57723;51.698;5.344;2022-08-19T14:27:56;20.17;;;11.03;;
70312;SDS011;57723;51.698;5.344;2022-08-19T14:30:26;18.53;;;10.67;;
70312;SDS011;57723;51.698;5.344;2022-08-19T14:32:53;18.70;;;9.68;;
70312;SDS011;57723;51.698;5.344;2022-08-19T14:35:19;16.63;;;10.20;;
70312;SDS011;57723;51.698;5.344;2022-08-19T14:37:47;16.63;;;9.48;;
70312;SDS011;57723;51.698;5.344;2022-08-19T14:40:14;14.47;;;8.80;;
70312;SDS011;57723;51.698;5.344;2022-08-19T14:42:39;17.27;;;9.20;;